sensor_id;sensor_type;location;lat;lon;timestamp;P1;durP1;ratioP1;P2;durP2;ratioP2
66741;SDS011;53654;54.152;19.432;2022-09-19T00:01:54;4.50;;;3.80;;
66741;SDS011;53654;54.152;19.432;2022-09-19T00:04:28;5.50;;;3.70;;
66741;SDS011;53654;54.152;19.432;2022-09-19T00:06:58;4.90;;;3.60;;
66741;SDS011;53654;54.152;19.432;2022-09-19T00:09:28;7.50;;;3.90;;
66741;SDS011;53654;54.152;19.432;2022-09-19T00:11:58;5.20;;;3.30;;
66741;SDS011;53654;54.152;19.432;2022-09-19T00:14:29;4.70;;;3.20;;
66741;SDS011;53654;54.152;19.432;2022-09-19T00:17:00;4.90;;;2.60;;
66741;SDS011;53654;54.152;19.432;2022-09-19T00:19:31;3.30;;;2.50;;
66741;SDS011;53654;54.152;19.432;2022-09-19T00:21:59;2.80;;;1.70;;
66741;SDS011;53654;54.152;19.432;2022-09-19T00:24:28;3.00;;;1.90;;
66741;SDS011;53654;54.152;19.432;2022-09-19T00:27:18;4.50;;;2.40;;
66741;SDS011;53654;54.152;19.432;2022-09-19T00:29:51;3.70;;;2.10;;
66741;SDS011;53654;54.152;19.432;2022-09-19T00:32:21;5.50;;;2.10;;
66741;SDS011;53654;54.152;19.432;2022-09-19T00:34:51;4.90;;;2.10;;
66741;SDS011;53654;54.152;19.432;2022-09-19T00:37:23;5.70;;;2.10;;
66741;SDS011;53654;54.152;19.432;2022-09-19T00:39:52;5.00;;;2.00;;
66741;SDS011;53654;54.152;19.432;2022-09-19T00:42:23;4.40;;;2.50;;
66741;SDS011;53654;54.152;19.432;2022-09-19T00:44:54;4.70;;;2.30;;
66741;SDS011;53654;54.152;19.432;2022-09-19T00:47:32;4.20;;;2.30;;
66741;SDS011;53654;54.152;19.432;2022-09-19T00:50:06;5.30;;;2.40;;
66741;SDS011;53654;54.152;19.432;2022-09-19T00:55:07;5.00;;;1.80;;
66741;SDS011;53654;54.152;19.432;2022-09-19T00:57:38;4.20;;;2.80;;
66741;SDS011;53654;54.152;19.432;2022-09-19T01:00:13;7.40;;;2.30;;
66741;SDS011;53654;54.152;19.432;2022-09-19T01:02:42;3.60;;;2.00;;
66741;SDS011;53654;54.152;19.432;2022-09-19T01:05:10;2.90;;;1.90;;
66741;SDS011;53654;54.152;19.432;2022-09-19T01:07:42;3.90;;;1.90;;
66741;SDS011;53654;54.152;19.432;2022-09-19T01:10:24;3.80;;;2.20;;
66741;SDS011;53654;54.152;19.432;2022-09-19T01:16:18;4.20;;;2.20;;
66741;SDS011;53654;54.152;19.432;2022-09-19T01:18:59;2.30;;;1.80;;
66741;SDS011;53654;54.152;19.432;2022-09-19T01:22:11;3.60;;;2.20;;
66741;SDS011;53654;54.152;19.432;2022-09-19T01:24:59;3.60;;;2.10;;
66741;SDS011;53654;54.152;19.432;2022-09-19T01:30:23;3.90;;;2.20;;
66741;SDS011;53654;54.152;19.432;2022-09-19T01:32:55;5.20;;;1.90;;
66741;SDS011;53654;54.152;19.432;2022-09-19T01:35:28;4.40;;;2.20;;
66741;SDS011;53654;54.152;19.432;2022-09-19T01:38:33;4.60;;;1.60;;
66741;SDS011;53654;54.152;19.432;2022-09-19T01:40:56;3.10;;;1.90;;
66741;SDS011;53654;54.152;19.432;2022-09-19T01:43:25;2.40;;;1.70;;
66741;SDS011;53654;54.152;19.432;2022-09-19T01:45:53;3.40;;;1.90;;
66741;SDS011;53654;54.152;19.432;2022-09-19T01:48:48;3.30;;;1.80;;
66741;SDS011;53654;54.152;19.432;2022-09-19T01:51:30;4.20;;;2.10;;
66741;SDS011;53654;54.152;19.432;2022-09-19T02:00:15;4.60;;;1.90;;
66741;SDS011;53654;54.152;19.432;2022-09-19T02:02:59;4.30;;;2.10;;
66741;SDS011;53654;54.152;19.432;2022-09-19T02:05:43;5.40;;;2.10;;
66741;SDS011;53654;54.152;19.432;2022-09-19T02:08:52;5.10;;;1.80;;
66741;SDS011;53654;54.152;19.432;2022-09-19T02:11:44;4.70;;;2.00;;
66741;SDS011;53654;54.152;19.432;2022-09-19T02:14:13;4.30;;;2.20;;
66741;SDS011;53654;54.152;19.432;2022-09-19T02:16:53;6.60;;;2.30;;
66741;SDS011;53654;54.152;19.432;2022-09-19T02:19:32;4.20;;;2.30;;
66741;SDS011;53654;54.152;19.432;2022-09-19T02:22:08;3.90;;;2.10;;
66741;SDS011;53654;54.152;19.432;2022-09-19T02:24:38;3.90;;;2.10;;
66741;SDS011;53654;54.152;19.432;2022-09-19T02:27:12;4.20;;;2.40;;
66741;SDS011;53654;54.152;19.432;2022-09-19T02:29:52;3.90;;;2.30;;
66741;SDS011;53654;54.152;19.432;2022-09-19T02:32:27;4.10;;;2.60;;
66741;SDS011;53654;54.152;19.432;2022-09-19T02:34:55;2.90;;;2.10;;
66741;SDS011;53654;54.152;19.432;2022-09-19T02:37:28;3.50;;;1.80;;
66741;SDS011;53654;54.152;19.432;2022-09-19T02:40:17;4.30;;;2.10;;
66741;SDS011;53654;54.152;19.432;2022-09-19T02:42:57;2.80;;;2.30;;
66741;SDS011;53654;54.152;19.432;2022-09-19T02:45:37;3.40;;;2.30;;
66741;SDS011;53654;54.152;19.432;2022-09-19T02:53:24;4.30;;;2.00;;
66741;SDS011;53654;54.152;19.432;2022-09-19T02:55:58;4.10;;;2.80;;
66741;SDS011;53654;54.152;19.432;2022-09-19T02:58:34;4.30;;;2.10;;
66741;SDS011;53654;54.152;19.432;2022-09-19T03:01:09;3.40;;;1.80;;
66741;SDS011;53654;54.152;19.432;2022-09-19T03:03:45;3.90;;;2.10;;
66741;SDS011;53654;54.152;19.432;2022-09-19T03:06:38;3.90;;;2.20;;
66741;SDS011;53654;54.152;19.432;2022-09-19T03:09:15;3.50;;;2.10;;
66741;SDS011;53654;54.152;19.432;2022-09-19T03:11:49;4.60;;;2.10;;
66741;SDS011;53654;54.152;19.432;2022-09-19T03:14:25;3.10;;;1.90;;
66741;SDS011;53654;54.152;19.432;2022-09-19T03:16:54;5.40;;;2.20;;
66741;SDS011;53654;54.152;19.432;2022-09-19T03:19:25;2.40;;;2.10;;
66741;SDS011;53654;54.152;19.432;2022-09-19T03:21:53;3.40;;;2.10;;
66741;SDS011;53654;54.152;19.432;2022-09-19T03:24:22;3.70;;;2.00;;
66741;SDS011;53654;54.152;19.432;2022-09-19T03:26:51;3.90;;;2.30;;
66741;SDS011;53654;54.152;19.432;2022-09-19T03:29:20;2.80;;;2.00;;
66741;SDS011;53654;54.152;19.432;2022-09-19T03:31:52;4.80;;;2.30;;
66741;SDS011;53654;54.152;19.432;2022-09-19T03:34:22;2.40;;;2.10;;
66741;SDS011;53654;54.152;19.432;2022-09-19T03:36:51;4.50;;;2.60;;
66741;SDS011;53654;54.152;19.432;2022-09-19T03:39:25;2.60;;;2.40;;
66741;SDS011;53654;54.152;19.432;2022-09-19T03:41:53;3.50;;;2.50;;
66741;SDS011;53654;54.152;19.432;2022-09-19T03:44:23;3.40;;;2.80;;
66741;SDS011;53654;54.152;19.432;2022-09-19T03:46:51;3.90;;;2.50;;
66741;SDS011;53654;54.152;19.432;2022-09-19T03:49:19;6.20;;;2.80;;
66741;SDS011;53654;54.152;19.432;2022-09-19T03:51:49;3.60;;;2.60;;
66741;SDS011;53654;54.152;19.432;2022-09-19T03:54:17;3.30;;;2.50;;
66741;SDS011;53654;54.152;19.432;2022-09-19T03:56:45;4.00;;;2.50;;
66741;SDS011;53654;54.152;19.432;2022-09-19T03:59:14;3.90;;;2.10;;
66741;SDS011;53654;54.152;19.432;2022-09-19T04:01:43;2.10;;;1.90;;
66741;SDS011;53654;54.152;19.432;2022-09-19T04:04:12;4.60;;;2.20;;
66741;SDS011;53654;54.152;19.432;2022-09-19T04:06:45;5.40;;;2.30;;
66741;SDS011;53654;54.152;19.432;2022-09-19T04:09:13;4.40;;;2.30;;
66741;SDS011;53654;54.152;19.432;2022-09-19T04:11:44;4.50;;;2.40;;
66741;SDS011;53654;54.152;19.432;2022-09-19T04:14:12;4.90;;;2.40;;
66741;SDS011;53654;54.152;19.432;2022-09-19T04:16:40;2.60;;;2.20;;
66741;SDS011;53654;54.152;19.432;2022-09-19T04:19:09;4.80;;;2.10;;
66741;SDS011;53654;54.152;19.432;2022-09-19T04:21:58;3.40;;;2.10;;
66741;SDS011;53654;54.152;19.432;2022-09-19T04:24:34;5.60;;;2.70;;
66741;SDS011;53654;54.152;19.432;2022-09-19T04:27:17;2.80;;;2.30;;
66741;SDS011;53654;54.152;19.432;2022-09-19T04:29:48;5.20;;;2.70;;
66741;SDS011;53654;54.152;19.432;2022-09-19T04:32:17;6.90;;;3.00;;
66741;SDS011;53654;54.152;19.432;2022-09-19T04:34:49;4.60;;;2.70;;
66741;SDS011;53654;54.152;19.432;2022-09-19T04:37:17;3.70;;;2.80;;
66741;SDS011;53654;54.152;19.432;2022-09-19T04:39:52;4.50;;;2.70;;
66741;SDS011;53654;54.152;19.432;2022-09-19T04:42:20;3.10;;;2.90;;
66741;SDS011;53654;54.152;19.432;2022-09-19T04:44:48;4.00;;;2.80;;
66741;SDS011;53654;54.152;19.432;2022-09-19T04:47:46;5.50;;;3.20;;
66741;SDS011;53654;54.152;19.432;2022-09-19T04:50:15;3.80;;;3.00;;
66741;SDS011;53654;54.152;19.432;2022-09-19T04:52:54;6.00;;;4.30;;
66741;SDS011;53654;54.152;19.432;2022-09-19T04:55:27;4.50;;;3.40;;
66741;SDS011;53654;54.152;19.432;2022-09-19T04:57:56;5.90;;;3.70;;
66741;SDS011;53654;54.152;19.432;2022-09-19T05:00:25;4.30;;;3.00;;
66741;SDS011;53654;54.152;19.432;2022-09-19T05:03:14;5.60;;;3.00;;
66741;SDS011;53654;54.152;19.432;2022-09-19T05:05:45;3.30;;;3.00;;
66741;SDS011;53654;54.152;19.432;2022-09-19T05:08:27;5.70;;;3.80;;
66741;SDS011;53654;54.152;19.432;2022-09-19T05:11:03;4.80;;;3.50;;
66741;SDS011;53654;54.152;19.432;2022-09-19T05:13:34;5.90;;;3.90;;
66741;SDS011;53654;54.152;19.432;2022-09-19T05:16:07;7.90;;;5.00;;
66741;SDS011;53654;54.152;19.432;2022-09-19T05:18:41;10.80;;;5.70;;
66741;SDS011;53654;54.152;19.432;2022-09-19T05:21:13;15.40;;;8.10;;
66741;SDS011;53654;54.152;19.432;2022-09-19T05:23:43;16.40;;;9.20;;
66741;SDS011;53654;54.152;19.432;2022-09-19T05:26:12;19.40;;;10.30;;
66741;SDS011;53654;54.152;19.432;2022-09-19T05:28:50;13.80;;;7.40;;
66741;SDS011;53654;54.152;19.432;2022-09-19T05:31:20;10.50;;;6.00;;
66741;SDS011;53654;54.152;19.432;2022-09-19T05:34:07;9.10;;;5.60;;
66741;SDS011;53654;54.152;19.432;2022-09-19T05:36:38;6.80;;;5.10;;
66741;SDS011;53654;54.152;19.432;2022-09-19T05:39:18;6.80;;;4.20;;
66741;SDS011;53654;54.152;19.432;2022-09-19T05:42:05;6.30;;;3.70;;
66741;SDS011;53654;54.152;19.432;2022-09-19T05:44:34;6.10;;;3.60;;
66741;SDS011;53654;54.152;19.432;2022-09-19T05:47:04;4.30;;;3.80;;
66741;SDS011;53654;54.152;19.432;2022-09-19T05:49:33;5.50;;;3.80;;
66741;SDS011;53654;54.152;19.432;2022-09-19T05:52:02;4.70;;;3.50;;
66741;SDS011;53654;54.152;19.432;2022-09-19T05:54:50;7.80;;;4.40;;
66741;SDS011;53654;54.152;19.432;2022-09-19T05:57:35;4.90;;;3.80;;
66741;SDS011;53654;54.152;19.432;2022-09-19T06:00:04;6.10;;;3.30;;
66741;SDS011;53654;54.152;19.432;2022-09-19T06:02:39;3.80;;;3.40;;
66741;SDS011;53654;54.152;19.432;2022-09-19T06:05:10;6.80;;;4.90;;
66741;SDS011;53654;54.152;19.432;2022-09-19T06:07:40;6.40;;;4.60;;
66741;SDS011;53654;54.152;19.432;2022-09-19T06:10:09;4.10;;;3.70;;
66741;SDS011;53654;54.152;19.432;2022-09-19T06:12:37;4.60;;;3.70;;
66741;SDS011;53654;54.152;19.432;2022-09-19T06:15:05;4.30;;;3.40;;
66741;SDS011;53654;54.152;19.432;2022-09-19T06:17:34;5.40;;;3.60;;
66741;SDS011;53654;54.152;19.432;2022-09-19T06:20:15;6.80;;;4.10;;
66741;SDS011;53654;54.152;19.432;2022-09-19T06:22:48;4.60;;;4.10;;
66741;SDS011;53654;54.152;19.432;2022-09-19T06:25:19;4.70;;;3.80;;
66741;SDS011;53654;54.152;19.432;2022-09-19T06:27:58;5.50;;;3.40;;
66741;SDS011;53654;54.152;19.432;2022-09-19T06:30:29;3.80;;;3.20;;
66741;SDS011;53654;54.152;19.432;2022-09-19T06:33:15;4.90;;;3.70;;
66741;SDS011;53654;54.152;19.432;2022-09-19T06:35:59;5.90;;;4.20;;
66741;SDS011;53654;54.152;19.432;2022-09-19T06:38:30;4.40;;;3.60;;
66741;SDS011;53654;54.152;19.432;2022-09-19T06:41:32;4.00;;;3.40;;
66741;SDS011;53654;54.152;19.432;2022-09-19T06:44:11;4.10;;;3.30;;
66741;SDS011;53654;54.152;19.432;2022-09-19T06:47:18;5.00;;;3.70;;
66741;SDS011;53654;54.152;19.432;2022-09-19T06:49:52;4.00;;;3.50;;
66741;SDS011;53654;54.152;19.432;2022-09-19T06:52:25;4.60;;;3.20;;
66741;SDS011;53654;54.152;19.432;2022-09-19T06:54:55;5.00;;;3.10;;
66741;SDS011;53654;54.152;19.432;2022-09-19T06:57:23;3.50;;;2.30;;
66741;SDS011;53654;54.152;19.432;2022-09-19T06:59:51;3.50;;;2.40;;
66741;SDS011;53654;54.152;19.432;2022-09-19T07:02:19;2.90;;;2.70;;
66741;SDS011;53654;54.152;19.432;2022-09-19T07:04:50;4.30;;;3.30;;
66741;SDS011;53654;54.152;19.432;2022-09-19T07:07:53;3.30;;;2.60;;
66741;SDS011;53654;54.152;19.432;2022-09-19T07:10:22;3.90;;;3.20;;
66741;SDS011;53654;54.152;19.432;2022-09-19T07:12:54;3.30;;;3.00;;
66741;SDS011;53654;54.152;19.432;2022-09-19T07:15:24;5.30;;;2.90;;
66741;SDS011;53654;54.152;19.432;2022-09-19T07:17:54;2.00;;;1.90;;
66741;SDS011;53654;54.152;19.432;2022-09-19T07:20:24;2.10;;;1.80;;
66741;SDS011;53654;54.152;19.432;2022-09-19T07:23:13;2.50;;;1.90;;
66741;SDS011;53654;54.152;19.432;2022-09-19T07:26:06;2.00;;;1.90;;
66741;SDS011;53654;54.152;19.432;2022-09-19T07:28:36;2.80;;;1.90;;
66741;SDS011;53654;54.152;19.432;2022-09-19T07:31:04;1.80;;;1.70;;
66741;SDS011;53654;54.152;19.432;2022-09-19T07:33:37;1.90;;;1.70;;
66741;SDS011;53654;54.152;19.432;2022-09-19T07:36:06;3.10;;;2.00;;
66741;SDS011;53654;54.152;19.432;2022-09-19T07:38:36;2.50;;;2.10;;
66741;SDS011;53654;54.152;19.432;2022-09-19T07:41:28;2.40;;;1.60;;
66741;SDS011;53654;54.152;19.432;2022-09-19T07:44:32;2.20;;;1.80;;
66741;SDS011;53654;54.152;19.432;2022-09-19T07:47:10;2.10;;;1.50;;
66741;SDS011;53654;54.152;19.432;2022-09-19T07:50:22;2.40;;;1.80;;
66741;SDS011;53654;54.152;19.432;2022-09-19T07:53:01;2.50;;;1.80;;
66741;SDS011;53654;54.152;19.432;2022-09-19T07:55:33;1.70;;;1.60;;
66741;SDS011;53654;54.152;19.432;2022-09-19T07:58:04;2.10;;;1.90;;
66741;SDS011;53654;54.152;19.432;2022-09-19T08:00:49;2.90;;;1.70;;
66741;SDS011;53654;54.152;19.432;2022-09-19T08:03:48;1.70;;;1.60;;
66741;SDS011;53654;54.152;19.432;2022-09-19T08:06:21;2.20;;;2.00;;
66741;SDS011;53654;54.152;19.432;2022-09-19T08:08:49;2.90;;;2.30;;
66741;SDS011;53654;54.152;19.432;2022-09-19T08:11:40;4.10;;;2.70;;
66741;SDS011;53654;54.152;19.432;2022-09-19T08:14:08;3.30;;;2.90;;
66741;SDS011;53654;54.152;19.432;2022-09-19T08:16:37;4.50;;;2.80;;
66741;SDS011;53654;54.152;19.432;2022-09-19T08:19:06;3.60;;;2.70;;
66741;SDS011;53654;54.152;19.432;2022-09-19T08:21:35;4.20;;;2.50;;
66741;SDS011;53654;54.152;19.432;2022-09-19T08:24:04;4.60;;;2.30;;
66741;SDS011;53654;54.152;19.432;2022-09-19T08:26:32;3.10;;;2.50;;
66741;SDS011;53654;54.152;19.432;2022-09-19T08:29:01;3.10;;;1.70;;
66741;SDS011;53654;54.152;19.432;2022-09-19T08:31:31;1.50;;;1.40;;
66741;SDS011;53654;54.152;19.432;2022-09-19T08:34:00;2.60;;;2.00;;
66741;SDS011;53654;54.152;19.432;2022-09-19T08:36:28;2.10;;;1.80;;
66741;SDS011;53654;54.152;19.432;2022-09-19T08:38:57;2.40;;;2.20;;
66741;SDS011;53654;54.152;19.432;2022-09-19T08:43:58;3.10;;;1.90;;
66741;SDS011;53654;54.152;19.432;2022-09-19T08:47:24;2.50;;;1.90;;
66741;SDS011;53654;54.152;19.432;2022-09-19T08:50:22;2.30;;;2.10;;
66741;SDS011;53654;54.152;19.432;2022-09-19T08:52:53;2.20;;;2.00;;
66741;SDS011;53654;54.152;19.432;2022-09-19T08:55:27;1.80;;;1.70;;
66741;SDS011;53654;54.152;19.432;2022-09-19T08:58:12;1.80;;;1.60;;
66741;SDS011;53654;54.152;19.432;2022-09-19T09:01:04;1.50;;;1.30;;
66741;SDS011;53654;54.152;19.432;2022-09-19T09:15:13;1.90;;;1.60;;
66741;SDS011;53654;54.152;19.432;2022-09-19T09:18:26;1.40;;;1.30;;
66741;SDS011;53654;54.152;19.432;2022-09-19T09:21:02;1.70;;;1.50;;
66741;SDS011;53654;54.152;19.432;2022-09-19T09:23:35;1.70;;;1.60;;
66741;SDS011;53654;54.152;19.432;2022-09-19T09:26:28;1.50;;;1.40;;
66741;SDS011;53654;54.152;19.432;2022-09-19T09:37:44;1.90;;;1.80;;
66741;SDS011;53654;54.152;19.432;2022-09-19T09:43:22;2.30;;;2.10;;
66741;SDS011;53654;54.152;19.432;2022-09-19T09:45:55;3.10;;;2.50;;
66741;SDS011;53654;54.152;19.432;2022-09-19T09:48:31;2.80;;;2.50;;
66741;SDS011;53654;54.152;19.432;2022-09-19T09:54:15;2.10;;;1.80;;
66741;SDS011;53654;54.152;19.432;2022-09-19T10:00:14;2.40;;;1.40;;
66741;SDS011;53654;54.152;19.432;2022-09-19T10:06:30;1.40;;;1.30;;
66741;SDS011;53654;54.152;19.432;2022-09-19T10:11:53;2.30;;;1.80;;
66741;SDS011;53654;54.152;19.432;2022-09-19T10:14:46;2.00;;;1.10;;
66741;SDS011;53654;54.152;19.432;2022-09-19T10:17:36;0.90;;;0.90;;
66741;SDS011;53654;54.152;19.432;2022-09-19T10:20:15;1.20;;;1.00;;
66741;SDS011;53654;54.152;19.432;2022-09-19T10:22:47;2.90;;;1.20;;
66741;SDS011;53654;54.152;19.432;2022-09-19T10:25:16;1.40;;;1.00;;
66741;SDS011;53654;54.152;19.432;2022-09-19T10:27:44;1.00;;;0.70;;
66741;SDS011;53654;54.152;19.432;2022-09-19T10:30:34;1.60;;;0.70;;
66741;SDS011;53654;54.152;19.432;2022-09-19T10:33:16;0.90;;;0.70;;
66741;SDS011;53654;54.152;19.432;2022-09-19T10:36:18;0.50;;;0.50;;
66741;SDS011;53654;54.152;19.432;2022-09-19T10:38:54;0.20;;;0.20;;
66741;SDS011;53654;54.152;19.432;2022-09-19T10:41:30;0.70;;;0.70;;
66741;SDS011;53654;54.152;19.432;2022-09-19T10:44:05;0.50;;;0.40;;
66741;SDS011;53654;54.152;19.432;2022-09-19T10:46:46;2.60;;;0.70;;
66741;SDS011;53654;54.152;19.432;2022-09-19T10:49:42;0.50;;;0.40;;
66741;SDS011;53654;54.152;19.432;2022-09-19T10:52:27;0.80;;;0.60;;
66741;SDS011;53654;54.152;19.432;2022-09-19T10:55:20;2.00;;;0.70;;
66741;SDS011;53654;54.152;19.432;2022-09-19T11:06:06;0.90;;;0.40;;
66741;SDS011;53654;54.152;19.432;2022-09-19T11:08:53;1.00;;;0.70;;
66741;SDS011;53654;54.152;19.432;2022-09-19T11:11:28;1.90;;;0.70;;
66741;SDS011;53654;54.152;19.432;2022-09-19T11:14:33;1.30;;;0.70;;
66741;SDS011;53654;54.152;19.432;2022-09-19T11:26:11;1.40;;;0.70;;
66741;SDS011;53654;54.152;19.432;2022-09-19T11:31:53;0.50;;;0.50;;
66741;SDS011;53654;54.152;19.432;2022-09-19T11:58:00;1.00;;;0.70;;
66741;SDS011;53654;54.152;19.432;2022-09-19T12:00:35;0.90;;;0.60;;
66741;SDS011;53654;54.152;19.432;2022-09-19T12:09:09;0.60;;;0.60;;
66741;SDS011;53654;54.152;19.432;2022-09-19T12:11:52;1.00;;;0.60;;
66741;SDS011;53654;54.152;19.432;2022-09-19T12:14:32;0.60;;;0.40;;
66741;SDS011;53654;54.152;19.432;2022-09-19T12:17:16;0.70;;;0.40;;
66741;SDS011;53654;54.152;19.432;2022-09-19T12:20:03;0.70;;;0.30;;
66741;SDS011;53654;54.152;19.432;2022-09-19T12:22:45;1.10;;;0.50;;
66741;SDS011;53654;54.152;19.432;2022-09-19T12:25:20;1.40;;;0.50;;
66741;SDS011;53654;54.152;19.432;2022-09-19T12:27:54;0.40;;;0.40;;
66741;SDS011;53654;54.152;19.432;2022-09-19T12:30:31;0.70;;;0.50;;
66741;SDS011;53654;54.152;19.432;2022-09-19T12:44:31;2.40;;;0.60;;
66741;SDS011;53654;54.152;19.432;2022-09-19T13:01:27;1.00;;;0.60;;
66741;SDS011;53654;54.152;19.432;2022-09-19T13:04:10;0.70;;;0.60;;
66741;SDS011;53654;54.152;19.432;2022-09-19T13:06:41;0.90;;;0.70;;
66741;SDS011;53654;54.152;19.432;2022-09-19T13:09:15;1.80;;;0.70;;
66741;SDS011;53654;54.152;19.432;2022-09-19T13:12:06;3.50;;;0.70;;
66741;SDS011;53654;54.152;19.432;2022-09-19T13:14:50;1.30;;;0.40;;
66741;SDS011;53654;54.152;19.432;2022-09-19T13:17:30;1.10;;;0.60;;
66741;SDS011;53654;54.152;19.432;2022-09-19T13:20:19;0.60;;;0.60;;
66741;SDS011;53654;54.152;19.432;2022-09-19T13:23:13;0.50;;;0.50;;
66741;SDS011;53654;54.152;19.432;2022-09-19T13:40:37;0.50;;;0.50;;
66741;SDS011;53654;54.152;19.432;2022-09-19T13:43:05;0.50;;;0.50;;
66741;SDS011;53654;54.152;19.432;2022-09-19T13:51:03;0.70;;;0.60;;
66741;SDS011;53654;54.152;19.432;2022-09-19T13:59:07;1.30;;;0.80;;
66741;SDS011;53654;54.152;19.432;2022-09-19T14:01:52;1.00;;;0.70;;
66741;SDS011;53654;54.152;19.432;2022-09-19T14:18:50;2.80;;;1.30;;
66741;SDS011;53654;54.152;19.432;2022-09-19T14:24:04;1.40;;;1.00;;
66741;SDS011;53654;54.152;19.432;2022-09-19T14:26:52;2.00;;;1.00;;
66741;SDS011;53654;54.152;19.432;2022-09-19T14:35:55;1.90;;;1.70;;
66741;SDS011;53654;54.152;19.432;2022-09-19T14:39:03;2.00;;;1.20;;
66741;SDS011;53654;54.152;19.432;2022-09-19T14:44:51;2.60;;;1.60;;
66741;SDS011;53654;54.152;19.432;2022-09-19T14:47:39;2.20;;;1.40;;
66741;SDS011;53654;54.152;19.432;2022-09-19T14:52:53;1.60;;;1.20;;
66741;SDS011;53654;54.152;19.432;2022-09-19T14:55:39;1.00;;;0.90;;
66741;SDS011;53654;54.152;19.432;2022-09-19T14:58:24;0.90;;;0.70;;
66741;SDS011;53654;54.152;19.432;2022-09-19T15:01:00;1.60;;;0.80;;
66741;SDS011;53654;54.152;19.432;2022-09-19T15:12:01;1.10;;;0.70;;
66741;SDS011;53654;54.152;19.432;2022-09-19T15:14:42;2.40;;;0.80;;
66741;SDS011;53654;54.152;19.432;2022-09-19T15:17:19;1.60;;;0.70;;
66741;SDS011;53654;54.152;19.432;2022-09-19T15:20:07;1.70;;;0.80;;
66741;SDS011;53654;54.152;19.432;2022-09-19T15:22:56;1.90;;;1.00;;
66741;SDS011;53654;54.152;19.432;2022-09-19T15:25:29;2.60;;;1.10;;
66741;SDS011;53654;54.152;19.432;2022-09-19T15:28:17;1.70;;;0.80;;
66741;SDS011;53654;54.152;19.432;2022-09-19T15:30:51;2.50;;;0.90;;
66741;SDS011;53654;54.152;19.432;2022-09-19T15:33:22;0.60;;;0.50;;
66741;SDS011;53654;54.152;19.432;2022-09-19T15:35:51;1.10;;;0.90;;
66741;SDS011;53654;54.152;19.432;2022-09-19T15:38:33;0.80;;;0.80;;
66741;SDS011;53654;54.152;19.432;2022-09-19T15:41:03;1.10;;;0.80;;
66741;SDS011;53654;54.152;19.432;2022-09-19T15:43:33;1.90;;;0.50;;
66741;SDS011;53654;54.152;19.432;2022-09-19T15:51:34;1.10;;;0.80;;
66741;SDS011;53654;54.152;19.432;2022-09-19T15:54:15;5.80;;;1.70;;
66741;SDS011;53654;54.152;19.432;2022-09-19T15:56:45;1.70;;;0.90;;
66741;SDS011;53654;54.152;19.432;2022-09-19T15:59:16;2.20;;;0.90;;
66741;SDS011;53654;54.152;19.432;2022-09-19T16:01:48;1.00;;;0.80;;
66741;SDS011;53654;54.152;19.432;2022-09-19T16:04:20;1.10;;;1.00;;
66741;SDS011;53654;54.152;19.432;2022-09-19T16:09:45;3.10;;;1.30;;
66741;SDS011;53654;54.152;19.432;2022-09-19T16:12:43;2.00;;;1.20;;
66741;SDS011;53654;54.152;19.432;2022-09-19T16:23:16;1.90;;;1.00;;
66741;SDS011;53654;54.152;19.432;2022-09-19T16:25:48;2.60;;;1.00;;
66741;SDS011;53654;54.152;19.432;2022-09-19T16:36:41;1.60;;;0.80;;
66741;SDS011;53654;54.152;19.432;2022-09-19T16:39:22;2.80;;;1.30;;
66741;SDS011;53654;54.152;19.432;2022-09-19T16:42:00;4.50;;;1.40;;
66741;SDS011;53654;54.152;19.432;2022-09-19T16:47:26;1.80;;;1.10;;
66741;SDS011;53654;54.152;19.432;2022-09-19T16:49:55;2.30;;;1.10;;
66741;SDS011;53654;54.152;19.432;2022-09-19T16:52:27;1.90;;;1.10;;
66741;SDS011;53654;54.152;19.432;2022-09-19T16:54:58;3.00;;;1.20;;
66741;SDS011;53654;54.152;19.432;2022-09-19T16:57:28;1.10;;;1.00;;
66741;SDS011;53654;54.152;19.432;2022-09-19T16:59:57;2.20;;;1.20;;
66741;SDS011;53654;54.152;19.432;2022-09-19T17:04:56;1.30;;;1.10;;
66741;SDS011;53654;54.152;19.432;2022-09-19T17:07:27;1.90;;;1.30;;
66741;SDS011;53654;54.152;19.432;2022-09-19T17:09:55;3.70;;;1.60;;
66741;SDS011;53654;54.152;19.432;2022-09-19T17:12:23;3.00;;;2.20;;
66741;SDS011;53654;54.152;19.432;2022-09-19T17:14:52;2.20;;;1.50;;
66741;SDS011;53654;54.152;19.432;2022-09-19T17:17:20;2.00;;;1.50;;
66741;SDS011;53654;54.152;19.432;2022-09-19T17:19:48;3.00;;;1.60;;
66741;SDS011;53654;54.152;19.432;2022-09-19T17:22:16;2.20;;;1.50;;
66741;SDS011;53654;54.152;19.432;2022-09-19T17:24:46;3.40;;;1.50;;
66741;SDS011;53654;54.152;19.432;2022-09-19T17:27:14;4.00;;;1.60;;
66741;SDS011;53654;54.152;19.432;2022-09-19T17:29:43;2.50;;;1.80;;
66741;SDS011;53654;54.152;19.432;2022-09-19T17:32:11;2.20;;;2.00;;
66741;SDS011;53654;54.152;19.432;2022-09-19T17:34:39;2.90;;;2.20;;
66741;SDS011;53654;54.152;19.432;2022-09-19T17:37:07;3.40;;;2.10;;
66741;SDS011;53654;54.152;19.432;2022-09-19T17:39:35;4.10;;;2.60;;
66741;SDS011;53654;54.152;19.432;2022-09-19T17:42:03;3.30;;;1.50;;
66741;SDS011;53654;54.152;19.432;2022-09-19T17:44:32;2.30;;;1.50;;
66741;SDS011;53654;54.152;19.432;2022-09-19T17:47:00;1.40;;;1.10;;
66741;SDS011;53654;54.152;19.432;2022-09-19T17:49:28;2.90;;;1.30;;
66741;SDS011;53654;54.152;19.432;2022-09-19T17:51:56;1.30;;;1.00;;
66741;SDS011;53654;54.152;19.432;2022-09-19T17:54:24;1.50;;;1.00;;
66741;SDS011;53654;54.152;19.432;2022-09-19T17:56:55;1.70;;;1.10;;
66741;SDS011;53654;54.152;19.432;2022-09-19T17:59:24;1.50;;;1.30;;
66741;SDS011;53654;54.152;19.432;2022-09-19T18:01:52;3.50;;;1.60;;
66741;SDS011;53654;54.152;19.432;2022-09-19T18:04:39;3.00;;;1.50;;
66741;SDS011;53654;54.152;19.432;2022-09-19T18:07:07;2.20;;;1.80;;
66741;SDS011;53654;54.152;19.432;2022-09-19T18:09:35;2.70;;;1.40;;
66741;SDS011;53654;54.152;19.432;2022-09-19T18:12:03;2.70;;;1.20;;
66741;SDS011;53654;54.152;19.432;2022-09-19T18:14:31;3.10;;;2.30;;
66741;SDS011;53654;54.152;19.432;2022-09-19T18:16:59;2.20;;;2.00;;
66741;SDS011;53654;54.152;19.432;2022-09-19T18:19:27;3.10;;;1.70;;
66741;SDS011;53654;54.152;19.432;2022-09-19T18:21:58;2.40;;;1.80;;
66741;SDS011;53654;54.152;19.432;2022-09-19T18:24:26;2.60;;;2.30;;
66741;SDS011;53654;54.152;19.432;2022-09-19T18:26:54;5.00;;;2.20;;
66741;SDS011;53654;54.152;19.432;2022-09-19T18:29:23;3.90;;;2.40;;
66741;SDS011;53654;54.152;19.432;2022-09-19T18:31:52;2.60;;;2.40;;
66741;SDS011;53654;54.152;19.432;2022-09-19T18:34:20;3.70;;;2.50;;
66741;SDS011;53654;54.152;19.432;2022-09-19T18:36:49;2.70;;;2.30;;
66741;SDS011;53654;54.152;19.432;2022-09-19T18:39:17;3.80;;;2.90;;
66741;SDS011;53654;54.152;19.432;2022-09-19T18:41:46;3.50;;;2.50;;
66741;SDS011;53654;54.152;19.432;2022-09-19T18:44:15;4.60;;;2.90;;
66741;SDS011;53654;54.152;19.432;2022-09-19T18:46:43;3.20;;;2.70;;
66741;SDS011;53654;54.152;19.432;2022-09-19T18:49:12;4.90;;;2.40;;
66741;SDS011;53654;54.152;19.432;2022-09-19T18:51:43;3.90;;;2.80;;
66741;SDS011;53654;54.152;19.432;2022-09-19T18:54:11;3.10;;;1.90;;
66741;SDS011;53654;54.152;19.432;2022-09-19T18:56:39;3.30;;;2.10;;
66741;SDS011;53654;54.152;19.432;2022-09-19T18:59:08;2.60;;;1.60;;
66741;SDS011;53654;54.152;19.432;2022-09-19T19:01:37;3.70;;;1.70;;
66741;SDS011;53654;54.152;19.432;2022-09-19T19:04:06;2.00;;;1.70;;
66741;SDS011;53654;54.152;19.432;2022-09-19T19:06:35;3.10;;;1.90;;
66741;SDS011;53654;54.152;19.432;2022-09-19T19:09:03;3.70;;;2.70;;
66741;SDS011;53654;54.152;19.432;2022-09-19T19:11:34;2.70;;;2.30;;